createdAt,value
2023-02-09T00:01:31.910Z,14.27
2023-02-09T00:04:00.968Z,13.70
2023-02-09T00:06:33.322Z,12.13
2023-02-09T00:09:01.051Z,9.93
2023-02-09T00:11:49.957Z,9.90
2023-02-09T00:14:22.169Z,9.73
2023-02-09T00:16:51.256Z,8.73
2023-02-09T00:19:20.658Z,9.20
2023-02-09T00:21:49.144Z,8.53
2023-02-09T00:24:17.049Z,9.53
2023-02-09T00:26:44.702Z,12.53
2023-02-09T00:29:12.862Z,13.23
2023-02-09T00:31:40.654Z,10.33
2023-02-09T00:34:08.554Z,8.97
2023-02-09T00:36:36.247Z,9.10
2023-02-09T00:39:03.852Z,8.90
2023-02-09T00:41:50.151Z,9.63
2023-02-09T00:44:20.659Z,9.43
2023-02-09T00:46:49.305Z,11.43
2023-02-09T00:49:16.990Z,13.37
2023-02-09T00:51:44.735Z,16.27
2023-02-09T00:54:13.517Z,16.17
2023-02-09T00:56:41.055Z,19.43
2023-02-09T00:59:08.568Z,20.50
2023-02-09T01:01:36.615Z,23.97
2023-02-09T01:04:04.944Z,25.03
2023-02-09T01:06:32.923Z,20.67
2023-02-09T01:09:01.331Z,23.07
2023-02-09T01:11:29.931Z,21.23
2023-02-09T01:14:00.444Z,16.17
2023-02-09T01:16:31.757Z,13.83
2023-02-09T01:19:01.872Z,14.27
2023-02-09T01:21:30.647Z,15.40
2023-02-09T01:24:01.259Z,14.07
2023-02-09T01:26:28.909Z,14.23
2023-02-09T01:28:56.452Z,13.17
2023-02-09T01:31:33.922Z,13.63
2023-02-09T01:34:04.877Z,11.77
2023-02-09T01:36:34.021Z,12.20
2023-02-09T01:39:03.981Z,11.10
2023-02-09T01:41:32.908Z,12.03
2023-02-09T01:44:11.045Z,12.13
2023-02-09T01:46:40.049Z,11.10
2023-02-09T01:49:10.540Z,12.73
2023-02-09T01:51:46.875Z,11.30
2023-02-09T01:54:25.673Z,12.17
2023-02-09T01:57:10.462Z,10.13
2023-02-09T01:59:42.009Z,10.77
2023-02-09T02:02:10.679Z,10.83
2023-02-09T02:04:39.612Z,11.67
2023-02-09T02:07:33.421Z,11.47
2023-02-09T02:10:03.058Z,11.87
2023-02-09T02:12:32.616Z,9.73
2023-02-09T02:15:00.245Z,10.37
2023-02-09T02:17:55.454Z,10.63
2023-02-09T02:21:04.534Z,10.97
2023-02-09T02:23:58.129Z,9.90
2023-02-09T02:26:40.506Z,9.60
2023-02-09T02:30:03.015Z,8.40
2023-02-09T02:32:45.354Z,7.97
2023-02-09T02:35:31.017Z,9.63
2023-02-09T02:38:17.180Z,9.77
2023-02-09T02:41:10.779Z,8.30
2023-02-09T02:43:53.268Z,10.80
2023-02-09T02:46:36.034Z,10.10
2023-02-09T02:49:18.136Z,10.90
2023-02-09T02:51:49.348Z,11.43
2023-02-09T02:54:45.039Z,9.63
2023-02-09T02:57:21.254Z,15.07
2023-02-09T03:00:23.656Z,11.10
2023-02-09T03:02:55.822Z,12.57
2023-02-09T03:05:25.698Z,8.00
2023-02-09T03:07:53.284Z,8.10
2023-02-09T03:10:35.831Z,8.17
2023-02-09T03:13:26.971Z,9.63
2023-02-09T03:16:48.055Z,11.17
2023-02-09T03:19:58.492Z,12.90
2023-02-09T03:22:37.118Z,11.73
2023-02-09T03:25:34.216Z,11.03
2023-02-09T03:28:17.223Z,10.30
2023-02-09T03:30:50.171Z,11.20
2023-02-09T03:33:25.245Z,9.70
2023-02-09T03:35:58.765Z,14.17
2023-02-09T03:38:27.164Z,13.20
2023-02-09T03:40:55.408Z,15.30
2023-02-09T03:43:42.885Z,13.30
2023-02-09T03:46:10.552Z,12.93
2023-02-09T03:48:38.979Z,13.37
2023-02-09T03:51:07.101Z,12.47
2023-02-09T03:53:37.242Z,15.27
2023-02-09T03:56:07.910Z,19.27
2023-02-09T03:58:36.331Z,38.13
2023-02-09T04:01:09.935Z,30.70
2023-02-09T04:03:39.915Z,15.00
2023-02-09T04:06:10.728Z,11.63
2023-02-09T04:08:38.388Z,12.63
2023-02-09T04:11:06.044Z,9.40
2023-02-09T04:13:33.504Z,7.87
2023-02-09T04:16:01.236Z,8.47
2023-02-09T04:18:28.727Z,8.87
2023-02-09T04:20:56.190Z,8.73
2023-02-09T04:23:23.659Z,10.27
2023-02-09T04:25:51.178Z,11.80
2023-02-09T04:28:21.682Z,10.60
2023-02-09T04:30:54.391Z,8.83
2023-02-09T04:33:24.049Z,9.20
2023-02-09T04:35:52.964Z,15.37
2023-02-09T04:38:22.027Z,13.90
2023-02-09T04:40:52.190Z,13.07
2023-02-09T04:43:20.024Z,10.97
2023-02-09T04:45:48.780Z,12.07
2023-02-09T04:48:21.267Z,14.07
2023-02-09T04:50:49.598Z,14.20
2023-02-09T04:53:17.865Z,14.30
2023-02-09T04:55:47.421Z,14.07
2023-02-09T04:58:38.288Z,15.37
2023-02-09T05:01:06.844Z,15.70
2023-02-09T05:03:34.628Z,15.10
2023-02-09T05:06:05.495Z,18.47
2023-02-09T05:08:33.528Z,14.57
2023-02-09T05:11:01.381Z,12.20
2023-02-09T05:13:29.801Z,12.27
2023-02-09T05:15:57.629Z,12.67
2023-02-09T05:18:26.307Z,10.63
2023-02-09T05:20:53.776Z,9.60
2023-02-09T05:23:21.521Z,8.77
2023-02-09T05:25:49.016Z,9.10
2023-02-09T05:28:16.793Z,9.97
2023-02-09T05:30:44.883Z,11.53
2023-02-09T05:33:12.587Z,11.77
2023-02-09T05:35:40.227Z,11.27
2023-02-09T05:38:07.771Z,12.90
2023-02-09T05:40:35.354Z,13.47
2023-02-09T05:43:03.481Z,10.77
2023-02-09T05:45:31.003Z,13.63
2023-02-09T05:47:58.471Z,11.47
2023-02-09T05:50:26.042Z,15.10
2023-02-09T05:52:58.281Z,11.73
2023-02-09T05:55:25.979Z,18.07
2023-02-09T05:57:53.455Z,23.67
2023-02-09T06:00:21.617Z,10.17
2023-02-09T06:02:51.607Z,9.10
2023-02-09T06:05:20.993Z,8.37
2023-02-09T06:07:49.509Z,8.33
2023-02-09T06:10:20.238Z,11.60
2023-02-09T06:12:48.077Z,8.67
2023-02-09T06:15:18.678Z,9.47
2023-02-09T06:17:46.452Z,13.43
2023-02-09T06:20:14.009Z,10.13
2023-02-09T06:22:41.530Z,12.57
2023-02-09T06:25:09.388Z,10.93
2023-02-09T06:27:36.974Z,11.23
2023-02-09T06:30:06.065Z,9.67
2023-02-09T06:32:33.518Z,13.30
2023-02-09T06:35:01.016Z,18.60
2023-02-09T06:37:28.445Z,22.00
2023-02-09T06:39:55.954Z,22.40
2023-02-09T06:42:23.819Z,17.93
2023-02-09T06:44:51.355Z,14.27
2023-02-09T06:47:18.792Z,14.97
2023-02-09T06:49:46.301Z,10.40
2023-02-09T06:52:13.892Z,12.70
2023-02-09T06:54:41.387Z,14.03
2023-02-09T06:57:08.932Z,9.73
2023-02-09T06:59:36.434Z,10.90
2023-02-09T07:02:03.938Z,11.53
2023-02-09T07:04:31.440Z,11.33
2023-02-09T07:06:58.905Z,8.53
2023-02-09T07:09:27.023Z,7.73
2023-02-09T07:11:54.579Z,7.50
2023-02-09T07:14:22.021Z,8.03
2023-02-09T07:16:49.490Z,7.40
2023-02-09T07:19:17.024Z,6.80
2023-02-09T07:21:44.494Z,7.37
2023-02-09T07:24:12.454Z,8.27
2023-02-09T07:26:40.001Z,7.67
2023-02-09T07:29:07.437Z,6.43
2023-02-09T07:31:34.993Z,6.37
2023-02-09T07:34:02.619Z,8.17
2023-02-09T07:36:30.103Z,7.27
2023-02-09T07:38:58.834Z,8.40
2023-02-09T07:41:27.868Z,8.53
2023-02-09T07:43:56.909Z,8.03
2023-02-09T07:46:25.714Z,6.80
2023-02-09T07:48:53.243Z,6.60
2023-02-09T07:51:25.415Z,7.40
2023-02-09T07:53:58.359Z,7.10
2023-02-09T07:56:27.727Z,6.70
2023-02-09T07:58:56.173Z,8.10
2023-02-09T08:01:25.644Z,7.03
2023-02-09T08:03:56.531Z,7.67
2023-02-09T08:06:45.954Z,7.30
2023-02-09T08:09:16.982Z,6.03
2023-02-09T08:12:06.048Z,5.53
2023-02-09T08:14:48.199Z,7.20
2023-02-09T08:17:27.942Z,5.73
2023-02-09T08:20:11.682Z,9.00
2023-02-09T08:22:46.627Z,11.30
2023-02-09T08:25:18.581Z,12.97
2023-02-09T08:27:47.759Z,6.83
2023-02-09T08:30:17.199Z,8.60
2023-02-09T08:32:46.065Z,7.50
2023-02-09T08:35:13.591Z,5.50
2023-02-09T08:37:41.120Z,6.63
2023-02-09T08:40:09.502Z,6.13
2023-02-09T08:42:36.980Z,5.63
2023-02-09T08:45:04.663Z,6.37
2023-02-09T08:47:32.118Z,9.43
2023-02-09T08:49:59.680Z,5.40
2023-02-09T08:52:27.288Z,6.57
2023-02-09T08:54:54.847Z,6.87
2023-02-09T08:57:24.208Z,6.33
2023-02-09T08:59:55.026Z,6.30
2023-02-09T09:02:22.666Z,5.60
2023-02-09T09:04:50.156Z,6.43
2023-02-09T09:07:17.639Z,5.77
2023-02-09T09:09:45.066Z,6.60
2023-02-09T09:12:12.594Z,6.50
2023-02-09T09:14:40.547Z,5.30
2023-02-09T09:17:08.046Z,6.70
2023-02-09T09:19:35.593Z,7.53
2023-02-09T09:22:03.730Z,6.50
2023-02-09T09:24:32.169Z,7.20
2023-02-09T09:26:59.649Z,6.10
2023-02-09T09:29:29.008Z,5.77
2023-02-09T09:31:56.969Z,6.23
2023-02-09T09:34:24.445Z,5.60
2023-02-09T09:36:52.094Z,5.70
2023-02-09T09:39:20.052Z,5.77
2023-02-09T09:41:52.376Z,5.97
2023-02-09T09:44:33.784Z,5.80
2023-02-09T09:47:08.917Z,6.27
2023-02-09T09:49:38.449Z,6.17
2023-02-09T09:52:24.810Z,6.00
2023-02-09T09:54:52.878Z,5.30
2023-02-09T09:57:25.638Z,6.23
2023-02-09T09:59:54.147Z,4.70
2023-02-09T10:02:32.594Z,4.50
2023-02-09T10:05:20.512Z,4.70
2023-02-09T10:08:05.631Z,5.43
2023-02-09T10:10:56.336Z,8.77
2023-02-09T10:13:37.574Z,6.33
2023-02-09T10:16:29.165Z,5.57
2023-02-09T10:19:03.505Z,5.60
2023-02-09T10:21:36.226Z,5.47
2023-02-09T10:24:09.300Z,4.97
2023-02-09T10:26:40.293Z,4.57
2023-02-09T10:29:13.862Z,5.23
2023-02-09T10:31:47.920Z,4.93
2023-02-09T10:34:24.412Z,5.83
2023-02-09T10:37:19.825Z,4.70
2023-02-09T10:40:01.627Z,5.77
2023-02-09T10:42:37.690Z,4.77
2023-02-09T10:45:21.002Z,4.53
2023-02-09T10:48:02.512Z,3.93
2023-02-09T10:50:32.320Z,4.40
2023-02-09T10:53:03.568Z,4.10
2023-02-09T10:55:41.654Z,4.40
2023-02-09T10:58:24.954Z,4.13
2023-02-09T11:01:24.787Z,3.87
2023-02-09T11:04:06.693Z,3.17
2023-02-09T11:06:56.641Z,4.13
2023-02-09T11:09:42.848Z,4.13
2023-02-09T11:12:13.114Z,3.93
2023-02-09T11:14:44.580Z,4.00
2023-02-09T11:17:31.625Z,3.63
2023-02-09T11:20:26.719Z,4.77
2023-02-09T11:23:24.983Z,3.40
2023-02-09T11:26:28.361Z,3.90
2023-02-09T11:29:14.249Z,4.00
2023-02-09T11:32:12.793Z,3.77
2023-02-09T11:35:05.046Z,5.37
2023-02-09T11:38:01.716Z,3.80
2023-02-09T11:40:54.057Z,4.00
2023-02-09T11:43:38.071Z,4.20
2023-02-09T11:46:18.993Z,3.93
2023-02-09T11:48:57.599Z,4.33
2023-02-09T11:51:26.953Z,24.97
2023-02-09T11:54:22.561Z,5.10
2023-02-09T11:57:03.271Z,5.60
2023-02-09T11:59:38.763Z,5.67
2023-02-09T12:02:38.741Z,5.87
2023-02-09T12:05:11.347Z,5.33
2023-02-09T12:07:51.965Z,6.07
2023-02-09T12:10:43.391Z,5.47
2023-02-09T12:13:28.810Z,4.77
2023-02-09T12:16:08.834Z,5.70
2023-02-09T12:18:37.547Z,5.87
2023-02-09T12:21:07.101Z,5.60
2023-02-09T12:23:35.244Z,7.30
2023-02-09T12:26:15.538Z,9.70
2023-02-09T12:28:54.566Z,5.07
2023-02-09T12:31:26.444Z,5.17
2023-02-09T12:33:59.804Z,4.80
2023-02-09T12:36:37.715Z,4.97
2023-02-09T12:39:26.678Z,4.80
2023-02-09T12:41:56.585Z,6.23
2023-02-09T12:44:26.805Z,8.80
2023-02-09T12:46:57.952Z,12.40
2023-02-09T12:49:28.217Z,9.47
2023-02-09T12:52:15.157Z,6.20
2023-02-09T12:54:56.688Z,5.80
2023-02-09T12:57:25.467Z,6.07
2023-02-09T12:59:52.846Z,5.63
2023-02-09T13:02:24.171Z,10.30
2023-02-09T13:04:59.908Z,5.73
2023-02-09T13:08:02.253Z,5.93
2023-02-09T13:10:41.587Z,6.27
2023-02-09T13:13:13.474Z,16.40
2023-02-09T13:16:04.765Z,5.73
2023-02-09T13:19:02.910Z,4.83
2023-02-09T13:21:52.399Z,6.13
2023-02-09T13:24:37.187Z,5.40
2023-02-09T13:27:20.396Z,5.37
2023-02-09T13:30:00.640Z,4.60
2023-02-09T13:32:36.176Z,5.20
2023-02-09T13:35:20.504Z,4.37
2023-02-09T13:37:56.608Z,4.93
2023-02-09T13:40:28.854Z,6.33
2023-02-09T13:43:20.250Z,8.10
2023-02-09T13:45:54.848Z,6.73
2023-02-09T13:48:29.248Z,5.93
2023-02-09T13:51:02.568Z,4.50
2023-02-09T13:53:31.897Z,4.83
2023-02-09T13:56:03.477Z,4.60
2023-02-09T13:58:38.455Z,4.60
2023-02-09T14:01:16.905Z,5.10
2023-02-09T14:03:58.821Z,4.70
2023-02-09T14:06:47.059Z,4.90
2023-02-09T14:09:30.071Z,4.33
2023-02-09T14:12:09.646Z,4.20
2023-02-09T14:15:06.422Z,4.63
2023-02-09T14:17:35.743Z,5.63
2023-02-09T14:20:04.706Z,5.07
2023-02-09T14:22:37.394Z,4.60
2023-02-09T14:25:18.354Z,4.97
2023-02-09T14:27:49.131Z,4.73
2023-02-09T14:30:29.628Z,4.90
2023-02-09T14:33:00.866Z,4.10
2023-02-09T14:35:30.860Z,6.90
2023-02-09T14:38:01.740Z,5.10
2023-02-09T14:40:31.732Z,5.33
2023-02-09T14:43:14.904Z,8.23
2023-02-09T14:45:46.460Z,6.27
2023-02-09T14:48:26.287Z,7.30
2023-02-09T14:51:01.628Z,9.30
2023-02-09T14:53:32.489Z,5.37
2023-02-09T14:56:00.252Z,5.60
2023-02-09T14:58:31.142Z,6.40
2023-02-09T15:01:02.452Z,5.67
2023-02-09T15:03:30.188Z,5.83
2023-02-09T15:06:01.891Z,5.50
2023-02-09T15:08:33.894Z,6.50
2023-02-09T15:11:24.698Z,6.33
2023-02-09T15:13:57.885Z,4.53
2023-02-09T15:16:25.621Z,4.03
2023-02-09T15:18:53.115Z,4.53
2023-02-09T15:21:20.659Z,4.73
2023-02-09T15:23:48.965Z,5.87
2023-02-09T15:26:20.628Z,4.47
2023-02-09T15:28:49.675Z,5.30
2023-02-09T15:31:19.641Z,4.77
2023-02-09T15:33:49.423Z,5.70
2023-02-09T15:36:21.638Z,5.50
2023-02-09T15:38:51.199Z,5.73
2023-02-09T15:41:37.260Z,7.03
2023-02-09T15:44:39.651Z,9.10
2023-02-09T15:47:28.543Z,6.30
2023-02-09T15:50:01.739Z,6.10
2023-02-09T15:52:30.683Z,4.90
2023-02-09T15:55:02.529Z,6.20
2023-02-09T15:57:31.123Z,5.70
2023-02-09T15:59:59.202Z,6.43
2023-02-09T16:02:28.174Z,7.00
2023-02-09T16:04:56.584Z,7.37
2023-02-09T16:07:26.826Z,7.00
2023-02-09T16:09:54.437Z,7.17
2023-02-09T16:12:21.945Z,7.97
2023-02-09T16:14:51.705Z,7.10
2023-02-09T16:17:20.336Z,7.00
2023-02-09T16:19:49.188Z,5.63
2023-02-09T16:22:22.704Z,4.90
2023-02-09T16:24:50.339Z,5.00
2023-02-09T16:27:26.518Z,5.50
2023-02-09T16:29:54.879Z,5.07
2023-02-09T16:32:24.672Z,5.40
2023-02-09T16:35:04.570Z,5.47
2023-02-09T16:37:39.043Z,5.13
2023-02-09T16:40:21.226Z,5.53
2023-02-09T16:42:48.841Z,6.07
2023-02-09T16:45:18.601Z,5.40
2023-02-09T16:47:53.005Z,6.00
2023-02-09T16:50:40.419Z,6.33
2023-02-09T16:53:18.850Z,5.73
2023-02-09T16:55:49.284Z,6.17
2023-02-09T16:58:20.316Z,5.70
2023-02-09T17:00:51.106Z,5.67
2023-02-09T17:03:39.683Z,5.30
2023-02-09T17:06:15.760Z,4.97
2023-02-09T17:08:43.544Z,5.60
2023-02-09T17:11:18.595Z,5.07
2023-02-09T17:13:46.254Z,5.23
2023-02-09T17:16:24.735Z,5.30
2023-02-09T17:18:56.852Z,4.73
2023-02-09T17:21:36.396Z,5.20
2023-02-09T17:24:05.279Z,5.70
2023-02-09T17:26:33.204Z,8.83
2023-02-09T17:29:02.083Z,13.47
2023-02-09T17:31:47.093Z,12.80
2023-02-09T17:34:27.504Z,9.53
2023-02-09T17:36:57.014Z,23.90
2023-02-09T17:39:25.205Z,21.07
2023-02-09T17:41:53.073Z,31.23
2023-02-09T17:44:45.155Z,169.33
2023-02-09T17:47:21.274Z,70.00
2023-02-09T17:49:49.378Z,19.73
2023-02-09T17:52:21.502Z,20.40
2023-02-09T17:54:51.068Z,15.77
2023-02-09T17:57:21.038Z,30.57
2023-02-09T17:59:50.379Z,39.83
2023-02-09T18:02:23.685Z,48.63
2023-02-09T18:04:51.197Z,64.83
2023-02-09T18:07:21.858Z,58.27
2023-02-09T18:09:49.702Z,45.07
2023-02-09T18:12:28.781Z,24.83
2023-02-09T18:14:56.548Z,12.40
2023-02-09T18:17:25.846Z,10.47
2023-02-09T18:19:53.392Z,16.53
2023-02-09T18:22:22.923Z,14.17
2023-02-09T18:24:52.253Z,8.40
2023-02-09T18:27:21.162Z,5.80
2023-02-09T18:29:48.644Z,18.10
2023-02-09T18:32:18.117Z,5.63
2023-02-09T18:34:46.205Z,11.40
2023-02-09T18:37:15.891Z,27.93
2023-02-09T18:39:46.545Z,37.03
2023-02-09T18:42:16.819Z,18.33
2023-02-09T18:44:44.952Z,14.57
2023-02-09T18:47:13.794Z,22.07
2023-02-09T18:49:42.985Z,13.77
2023-02-09T18:52:15.344Z,21.43
2023-02-09T18:54:43.339Z,17.73
2023-02-09T18:57:12.057Z,15.23
2023-02-09T18:59:40.867Z,13.77
2023-02-09T19:02:14.568Z,21.53
2023-02-09T19:04:43.829Z,10.67
2023-02-09T19:07:12.477Z,7.17
2023-02-09T19:09:42.910Z,6.50
2023-02-09T19:12:10.894Z,6.23
2023-02-09T19:14:42.592Z,6.30
2023-02-09T19:17:16.005Z,6.87
2023-02-09T19:19:44.705Z,8.93
2023-02-09T19:22:18.182Z,10.97
2023-02-09T19:24:51.406Z,10.23
2023-02-09T19:27:27.410Z,12.70
2023-02-09T19:30:00.946Z,12.37
2023-02-09T19:32:28.507Z,8.10
2023-02-09T19:34:56.085Z,11.70
2023-02-09T19:37:23.814Z,10.10
2023-02-09T19:40:00.822Z,9.63
2023-02-09T19:42:28.393Z,8.00
2023-02-09T19:44:56.538Z,7.77
2023-02-09T19:47:28.581Z,8.33
2023-02-09T19:50:00.347Z,6.10
2023-02-09T19:52:31.577Z,8.30
2023-02-09T19:54:59.238Z,6.77
2023-02-09T19:57:27.139Z,6.30
2023-02-09T19:59:56.380Z,6.10
2023-02-09T20:02:23.948Z,6.80
2023-02-09T20:04:51.595Z,7.40
2023-02-09T20:07:19.332Z,8.07
2023-02-09T20:09:46.898Z,9.10
2023-02-09T20:12:16.588Z,14.97
2023-02-09T20:14:44.087Z,9.43
2023-02-09T20:17:11.675Z,7.57
2023-02-09T20:19:39.894Z,7.47
2023-02-09T20:22:07.385Z,7.30
2023-02-09T20:24:36.272Z,7.10
2023-02-09T20:27:04.905Z,6.73
2023-02-09T20:29:32.457Z,7.37
2023-02-09T20:32:02.618Z,10.87
2023-02-09T20:34:30.775Z,11.93
2023-02-09T20:36:58.276Z,11.13
2023-02-09T20:39:25.761Z,10.63
2023-02-09T20:42:17.992Z,11.97
2023-02-09T20:45:04.262Z,12.77
2023-02-09T20:47:32.385Z,22.30
2023-02-09T20:50:01.142Z,22.40
2023-02-09T20:52:29.545Z,22.43
2023-02-09T20:54:57.484Z,23.13
2023-02-09T20:57:31.657Z,20.73
2023-02-09T21:00:00.939Z,16.67
2023-02-09T21:02:29.685Z,13.57
2023-02-09T21:04:58.566Z,11.20
2023-02-09T21:07:26.398Z,12.47
2023-02-09T21:09:58.123Z,12.00
2023-02-09T21:12:26.471Z,11.20
2023-02-09T21:14:54.220Z,16.93
2023-02-09T21:17:23.536Z,19.63
2023-02-09T21:19:51.177Z,17.00
2023-02-09T21:22:26.010Z,16.40
2023-02-09T21:24:53.567Z,18.30
2023-02-09T21:27:21.184Z,18.73
2023-02-09T21:29:48.803Z,20.63
2023-02-09T21:32:17.469Z,20.50
2023-02-09T21:35:10.403Z,16.33
2023-02-09T21:37:39.245Z,12.43
2023-02-09T21:40:07.785Z,12.57
2023-02-09T21:42:38.498Z,11.77
2023-02-09T21:45:07.995Z,12.57
2023-02-09T21:47:38.849Z,13.03
2023-02-09T21:50:10.864Z,15.03
2023-02-09T21:52:38.789Z,13.60
2023-02-09T21:55:08.324Z,13.23
2023-02-09T21:57:38.789Z,13.77
2023-02-09T22:00:09.187Z,14.07
2023-02-09T22:02:37.016Z,13.63
2023-02-09T22:05:05.519Z,13.10
2023-02-09T22:07:36.314Z,15.90
2023-02-09T22:10:05.345Z,13.83
2023-02-09T22:12:34.255Z,11.00
2023-02-09T22:15:01.757Z,10.13
2023-02-09T22:17:29.230Z,9.70
2023-02-09T22:19:56.747Z,10.43
2023-02-09T22:22:24.259Z,9.90
2023-02-09T22:24:51.765Z,11.13
2023-02-09T22:27:20.634Z,14.37
2023-02-09T22:29:48.159Z,14.60
2023-02-09T22:32:15.584Z,16.60
2023-02-09T22:34:42.984Z,16.63
2023-02-09T22:37:10.486Z,19.23
2023-02-09T22:39:37.982Z,33.10
2023-02-09T22:42:05.913Z,33.27
2023-02-09T22:44:33.491Z,30.03
2023-02-09T22:47:00.974Z,24.07
2023-02-09T22:49:28.555Z,23.20
2023-02-09T22:51:57.055Z,22.40
2023-02-09T22:54:24.658Z,21.43
2023-02-09T22:56:52.174Z,22.60
2023-02-09T22:59:19.783Z,20.07
2023-02-09T23:01:48.140Z,17.83
2023-02-09T23:04:15.678Z,15.93
2023-02-09T23:06:43.231Z,14.50
2023-02-09T23:09:13.375Z,14.60
2023-02-09T23:11:41.403Z,19.07
2023-02-09T23:14:11.248Z,21.63
2023-02-09T23:16:42.138Z,24.50
2023-02-09T23:19:13.370Z,29.57
2023-02-09T23:21:48.980Z,26.20
2023-02-09T23:24:24.407Z,22.80
2023-02-09T23:26:53.080Z,20.57
2023-02-09T23:29:21.370Z,19.70
2023-02-09T23:31:49.282Z,18.03
2023-02-09T23:34:21.170Z,16.27
2023-02-09T23:36:49.424Z,19.63
2023-02-09T23:39:23.116Z,21.57
2023-02-09T23:41:50.703Z,21.77
2023-02-09T23:44:18.290Z,21.80
2023-02-09T23:46:48.428Z,22.73
2023-02-09T23:49:15.895Z,21.53
2023-02-09T23:51:46.631Z,22.10
2023-02-09T23:54:14.574Z,19.47
2023-02-09T23:56:42.207Z,16.90
2023-02-09T23:59:14.364Z,17.97
